Metar del Interior

METAR SGME 101800Z NIL=
METAR SGLV 101800Z NIL=
METAR SGPJ 101800Z 05010KT 9999 SCT040 34/15 Q1016=
METAR SGPC 101800Z 05010KT 9999 SCT040 36/22 Q1011=
METAR SGCO 101800Z 31004KT 9999 FEW033 37/19 Q1011=
METAR SGSP 101800Z 00000KT CAVOK 35/20 Q1010=
METAR SGGR 101800Z 09002KT CAVOK 35/14 Q1011=
METAR SGVR 101800Z 05004KT 9999 FEW040 35/20 Q1012=
METAR SGPI 101800Z 00000KT 9999 FEW040 37/19 Q1012=
METAR SGSJ 101800Z 00000KT 9999 FEW020 31/17 Q1011=

TAF

TAF SGAS 101006Z 1012/1112 07005KT CAVOK TX35/1019Z TN25/1109Z 
BECMG 1014/1017 03010KT 9999 SCT033   PROB40 1018/1021 02008KT 
8000 SHRA BKN027 FEW040TCU   BECMG 1101/1103 04008KT CAVOK
TAF SGES 101006Z 1012/1112 10003KT CAVOK TX34/1019Z TN22/1109Z 
BECMG 1016/1019 02008KT 9999 BKN033   BECMG 1100/1103 04008KT CAVOK
TAF SGEN 101006Z 1012/1112 06012KT CAVOK TX33/1019Z TN22/1110Z 
 BECMG 1016/1019 02014KT 9999 BKN033  BECMG 1101/1103 VRB04KT CAVOK
TAF SGCO 101006Z 1012/1112 04010KT CAVOK TX36/1019Z TN26/1110Z 
BECMG 1014/1017 05010KT 9999 SCT033   PROB30 1018/1021 02008KT 8000
SHRA BKN027 FEW040TCU BECMG 1102/1105 04008KT CAVOK

La siguiente información es orientativa, no constituyendo documentación de vuelo. Para disponer de la misma se deberá solicitar a la Oficina Vigilancia Meteorológica (OVM) / Oficina ARO/AIS (Aeronautical Report Office/Aeronautical Information Service) del aeródromo de salida. Asimismo la Dirección de Meteorología e Hidrología no se responsabiliza por los perjuicios que pudieran ocasionarse a los "usuarios" y/o a terceros y/o a bienes, debido a las acciones o decisiones adoptadas o dejadas de adoptar en función de la información meteorológica suministrada.